sensor_id;sensor_type;location;lat;lon;timestamp;temperature;humidity
55996;DHT22;75961;51.012;4.634;2024-02-04T00:01:19;11.00;96.60
55996;DHT22;75961;51.012;4.634;2024-02-04T00:03:44;11.10;96.40
55996;DHT22;75961;51.012;4.634;2024-02-04T00:06:10;11.10;96.30
55996;DHT22;75961;51.012;4.634;2024-02-04T00:08:36;11.20;96.30
55996;DHT22;75961;51.012;4.634;2024-02-04T00:11:02;11.20;96.00
55996;DHT22;75961;51.012;4.634;2024-02-04T00:13:30;11.10;96.40
55996;DHT22;75961;51.012;4.634;2024-02-04T00:15:56;11.00;96.60
55996;DHT22;75961;51.012;4.634;2024-02-04T00:18:24;11.00;96.60
55996;DHT22;75961;51.012;4.634;2024-02-04T00:20:50;10.90;96.90
55996;DHT22;75961;51.012;4.634;2024-02-04T00:23:15;11.00;96.70
55996;DHT22;75961;51.012;4.634;2024-02-04T00:25:41;11.00;96.80
55996;DHT22;75961;51.012;4.634;2024-02-04T00:28:07;11.20;96.30
55996;DHT22;75961;51.012;4.634;2024-02-04T00:30:37;11.20;96.30
55996;DHT22;75961;51.012;4.634;2024-02-04T00:33:03;11.10;96.50
55996;DHT22;75961;51.012;4.634;2024-02-04T00:35:29;11.10;96.50
55996;DHT22;75961;51.012;4.634;2024-02-04T00:37:55;11.20;96.30
55996;DHT22;75961;51.012;4.634;2024-02-04T00:40:21;11.10;96.60
55996;DHT22;75961;51.012;4.634;2024-02-04T00:42:47;11.00;97.00
55996;DHT22;75961;51.012;4.634;2024-02-04T00:45:13;11.00;97.00
55996;DHT22;75961;51.012;4.634;2024-02-04T00:47:38;11.00;97.00
55996;DHT22;75961;51.012;4.634;2024-02-04T00:50:04;11.00;97.00
55996;DHT22;75961;51.012;4.634;2024-02-04T00:52:30;11.00;97.10
55996;DHT22;75961;51.012;4.634;2024-02-04T00:54:56;11.00;97.10
55996;DHT22;75961;51.012;4.634;2024-02-04T00:57:22;11.10;97.10
55996;DHT22;75961;51.012;4.634;2024-02-04T00:59:47;11.10;96.80
55996;DHT22;75961;51.012;4.634;2024-02-04T01:02:13;11.10;97.20
55996;DHT22;75961;51.012;4.634;2024-02-04T01:04:39;11.20;96.60
55996;DHT22;75961;51.012;4.634;2024-02-04T01:07:04;11.20;96.70
55996;DHT22;75961;51.012;4.634;2024-02-04T01:09:30;11.00;97.00
55996;DHT22;75961;51.012;4.634;2024-02-04T01:11:56;11.00;97.10
55996;DHT22;75961;51.012;4.634;2024-02-04T01:14:22;11.10;97.10
55996;DHT22;75961;51.012;4.634;2024-02-04T01:16:47;11.00;97.00
55996;DHT22;75961;51.012;4.634;2024-02-04T01:19:13;11.10;96.90
55996;DHT22;75961;51.012;4.634;2024-02-04T01:21:39;11.20;96.90
55996;DHT22;75961;51.012;4.634;2024-02-04T01:24:05;11.20;96.70
55996;DHT22;75961;51.012;4.634;2024-02-04T01:26:30;11.10;96.70
55996;DHT22;75961;51.012;4.634;2024-02-04T01:28:56;11.20;96.90
55996;DHT22;75961;51.012;4.634;2024-02-04T01:31:22;11.20;96.90
55996;DHT22;75961;51.012;4.634;2024-02-04T01:33:47;11.20;96.90
55996;DHT22;75961;51.012;4.634;2024-02-04T01:36:13;11.20;96.80
55996;DHT22;75961;51.012;4.634;2024-02-04T01:38:39;11.20;96.90
55996;DHT22;75961;51.012;4.634;2024-02-04T01:41:04;11.20;96.70
55996;DHT22;75961;51.012;4.634;2024-02-04T01:43:30;11.20;96.90
55996;DHT22;75961;51.012;4.634;2024-02-04T01:45:57;11.20;96.90
55996;DHT22;75961;51.012;4.634;2024-02-04T01:48:23;11.20;96.90
55996;DHT22;75961;51.012;4.634;2024-02-04T01:50:50;11.10;96.90
55996;DHT22;75961;51.012;4.634;2024-02-04T01:53:21;11.10;97.10
55996;DHT22;75961;51.012;4.634;2024-02-04T01:55:47;10.90;97.60
55996;DHT22;75961;51.012;4.634;2024-02-04T01:58:15;11.00;97.70
55996;DHT22;75961;51.012;4.634;2024-02-04T02:00:41;11.00;97.40
55996;DHT22;75961;51.012;4.634;2024-02-04T02:03:09;11.10;97.40
55996;DHT22;75961;51.012;4.634;2024-02-04T02:05:36;11.10;97.20
55996;DHT22;75961;51.012;4.634;2024-02-04T02:08:02;11.30;96.90
55996;DHT22;75961;51.012;4.634;2024-02-04T02:10:28;11.30;96.50
55996;DHT22;75961;51.012;4.634;2024-02-04T02:13:15;11.30;96.60
55996;DHT22;75961;51.012;4.634;2024-02-04T02:15:48;11.20;96.70
55996;DHT22;75961;51.012;4.634;2024-02-04T02:18:43;11.10;96.90
55996;DHT22;75961;51.012;4.634;2024-02-04T02:26:33;11.20;96.80
55996;DHT22;75961;51.012;4.634;2024-02-04T02:29:00;11.20;96.90
55996;DHT22;75961;51.012;4.634;2024-02-04T02:31:25;11.30;96.50
55996;DHT22;75961;51.012;4.634;2024-02-04T02:33:51;11.10;97.00
55996;DHT22;75961;51.012;4.634;2024-02-04T02:36:21;11.30;96.90
55996;DHT22;75961;51.012;4.634;2024-02-04T02:39:08;11.40;96.30
55996;DHT22;75961;51.012;4.634;2024-02-04T02:41:36;11.30;96.10
55996;DHT22;75961;51.012;4.634;2024-02-04T02:44:05;11.30;96.40
55996;DHT22;75961;51.012;4.634;2024-02-04T02:46:31;11.30;96.40
55996;DHT22;75961;51.012;4.634;2024-02-04T02:48:57;11.40;96.20
55996;DHT22;75961;51.012;4.634;2024-02-04T02:51:23;11.50;96.00
55996;DHT22;75961;51.012;4.634;2024-02-04T02:53:49;11.60;95.60
55996;DHT22;75961;51.012;4.634;2024-02-04T02:56:14;11.30;96.30
55996;DHT22;75961;51.012;4.634;2024-02-04T02:58:40;11.30;96.20
55996;DHT22;75961;51.012;4.634;2024-02-04T03:01:06;11.40;95.90
55996;DHT22;75961;51.012;4.634;2024-02-04T03:03:31;11.40;96.10
55996;DHT22;75961;51.012;4.634;2024-02-04T03:05:57;11.40;96.10
55996;DHT22;75961;51.012;4.634;2024-02-04T03:08:22;11.30;96.40
55996;DHT22;75961;51.012;4.634;2024-02-04T03:10:48;11.40;96.40
55996;DHT22;75961;51.012;4.634;2024-02-04T03:13:14;11.30;96.00
55996;DHT22;75961;51.012;4.634;2024-02-04T03:15:40;11.30;96.30
55996;DHT22;75961;51.012;4.634;2024-02-04T03:18:06;11.30;96.30
55996;DHT22;75961;51.012;4.634;2024-02-04T03:20:32;11.40;96.00
55996;DHT22;75961;51.012;4.634;2024-02-04T03:22:58;11.40;96.00
55996;DHT22;75961;51.012;4.634;2024-02-04T03:25:23;11.40;95.70
55996;DHT22;75961;51.012;4.634;2024-02-04T03:27:52;11.40;95.60
55996;DHT22;75961;51.012;4.634;2024-02-04T03:30:18;11.40;95.80
55996;DHT22;75961;51.012;4.634;2024-02-04T03:32:44;11.50;95.40
55996;DHT22;75961;51.012;4.634;2024-02-04T03:35:10;11.50;95.50
55996;DHT22;75961;51.012;4.634;2024-02-04T03:37:35;11.40;95.80
55996;DHT22;75961;51.012;4.634;2024-02-04T03:40:01;11.50;95.50
55996;DHT22;75961;51.012;4.634;2024-02-04T03:42:27;11.50;95.70
55996;DHT22;75961;51.012;4.634;2024-02-04T03:44:53;11.50;95.50
55996;DHT22;75961;51.012;4.634;2024-02-04T03:47:19;11.40;95.70
55996;DHT22;75961;51.012;4.634;2024-02-04T03:49:44;11.40;96.10
55996;DHT22;75961;51.012;4.634;2024-02-04T03:52:10;11.40;95.90
55996;DHT22;75961;51.012;4.634;2024-02-04T03:54:36;11.50;95.70
55996;DHT22;75961;51.012;4.634;2024-02-04T03:57:01;11.40;95.70
55996;DHT22;75961;51.012;4.634;2024-02-04T03:59:27;11.30;96.30
55996;DHT22;75961;51.012;4.634;2024-02-04T04:01:53;11.30;96.20
55996;DHT22;75961;51.012;4.634;2024-02-04T04:04:20;11.40;96.40
55996;DHT22;75961;51.012;4.634;2024-02-04T04:06:46;11.40;96.00
55996;DHT22;75961;51.012;4.634;2024-02-04T04:09:12;11.30;96.20
55996;DHT22;75961;51.012;4.634;2024-02-04T04:11:39;11.30;96.30
55996;DHT22;75961;51.012;4.634;2024-02-04T04:14:04;11.20;96.40
55996;DHT22;75961;51.012;4.634;2024-02-04T04:16:30;11.30;96.40
55996;DHT22;75961;51.012;4.634;2024-02-04T04:18:56;11.20;96.30
55996;DHT22;75961;51.012;4.634;2024-02-04T04:21:23;11.20;96.70
55996;DHT22;75961;51.012;4.634;2024-02-04T04:23:50;11.10;96.90
55996;DHT22;75961;51.012;4.634;2024-02-04T04:26:15;11.30;96.60
55996;DHT22;75961;51.012;4.634;2024-02-04T04:28:41;11.30;96.30
55996;DHT22;75961;51.012;4.634;2024-02-04T04:31:07;11.40;96.10
55996;DHT22;75961;51.012;4.634;2024-02-04T04:33:33;11.40;95.90
55996;DHT22;75961;51.012;4.634;2024-02-04T04:35:58;11.40;95.90
55996;DHT22;75961;51.012;4.634;2024-02-04T04:38:24;11.40;95.90
55996;DHT22;75961;51.012;4.634;2024-02-04T04:40:50;11.30;96.30
55996;DHT22;75961;51.012;4.634;2024-02-04T04:43:16;11.40;96.10
55996;DHT22;75961;51.012;4.634;2024-02-04T04:45:41;11.30;96.20
55996;DHT22;75961;51.012;4.634;2024-02-04T04:48:07;11.30;96.60
55996;DHT22;75961;51.012;4.634;2024-02-04T04:50:34;11.30;96.00
55996;DHT22;75961;51.012;4.634;2024-02-04T04:53:00;11.30;96.40
55996;DHT22;75961;51.012;4.634;2024-02-04T04:55:25;11.30;96.50
55996;DHT22;75961;51.012;4.634;2024-02-04T04:57:51;11.40;96.10
55996;DHT22;75961;51.012;4.634;2024-02-04T05:00:18;11.30;96.30
55996;DHT22;75961;51.012;4.634;2024-02-04T05:02:44;11.50;96.00
55996;DHT22;75961;51.012;4.634;2024-02-04T05:05:13;11.40;96.00
55996;DHT22;75961;51.012;4.634;2024-02-04T05:07:39;11.50;95.90
55996;DHT22;75961;51.012;4.634;2024-02-04T05:10:05;11.40;95.90
55996;DHT22;75961;51.012;4.634;2024-02-04T05:12:32;11.40;96.10
55996;DHT22;75961;51.012;4.634;2024-02-04T05:14:59;11.40;96.20
55996;DHT22;75961;51.012;4.634;2024-02-04T05:17:26;11.40;96.00
55996;DHT22;75961;51.012;4.634;2024-02-04T05:19:51;11.40;96.20
55996;DHT22;75961;51.012;4.634;2024-02-04T05:22:17;11.20;96.30
55996;DHT22;75961;51.012;4.634;2024-02-04T05:24:43;11.30;96.40
55996;DHT22;75961;51.012;4.634;2024-02-04T05:27:08;11.20;96.70
55996;DHT22;75961;51.012;4.634;2024-02-04T05:29:34;11.30;96.40
55996;DHT22;75961;51.012;4.634;2024-02-04T05:32:00;11.30;96.50
55996;DHT22;75961;51.012;4.634;2024-02-04T05:34:25;11.40;96.00
55996;DHT22;75961;51.012;4.634;2024-02-04T05:36:51;11.30;96.20
55996;DHT22;75961;51.012;4.634;2024-02-04T05:39:17;11.20;96.20
55996;DHT22;75961;51.012;4.634;2024-02-04T05:41:43;11.20;96.60
55996;DHT22;75961;51.012;4.634;2024-02-04T05:44:09;11.20;96.50
55996;DHT22;75961;51.012;4.634;2024-02-04T05:46:35;11.20;96.80
55996;DHT22;75961;51.012;4.634;2024-02-04T05:49:01;11.30;96.30
55996;DHT22;75961;51.012;4.634;2024-02-04T05:51:27;11.30;96.00
55996;DHT22;75961;51.012;4.634;2024-02-04T05:53:53;11.30;96.10
55996;DHT22;75961;51.012;4.634;2024-02-04T05:56:19;11.40;95.90
55996;DHT22;75961;51.012;4.634;2024-02-04T05:58:46;11.20;96.10
55996;DHT22;75961;51.012;4.634;2024-02-04T06:01:12;11.20;96.30
55996;DHT22;75961;51.012;4.634;2024-02-04T06:03:37;11.20;96.20
55996;DHT22;75961;51.012;4.634;2024-02-04T06:06:03;11.40;95.70
55996;DHT22;75961;51.012;4.634;2024-02-04T06:08:29;11.30;95.80
55996;DHT22;75961;51.012;4.634;2024-02-04T06:10:55;11.40;95.80
55996;DHT22;75961;51.012;4.634;2024-02-04T06:13:21;11.30;95.50
55996;DHT22;75961;51.012;4.634;2024-02-04T06:15:46;11.30;95.90
55996;DHT22;75961;51.012;4.634;2024-02-04T06:18:12;11.30;95.70
55996;DHT22;75961;51.012;4.634;2024-02-04T06:20:38;11.30;95.90
55996;DHT22;75961;51.012;4.634;2024-02-04T06:23:04;11.40;95.50
55996;DHT22;75961;51.012;4.634;2024-02-04T06:25:29;11.30;95.80
55996;DHT22;75961;51.012;4.634;2024-02-04T06:27:55;11.10;95.90
55996;DHT22;75961;51.012;4.634;2024-02-04T06:30:21;11.20;96.00
55996;DHT22;75961;51.012;4.634;2024-02-04T06:32:48;11.30;96.00
55996;DHT22;75961;51.012;4.634;2024-02-04T06:35:15;11.30;95.80
55996;DHT22;75961;51.012;4.634;2024-02-04T06:37:41;11.40;95.80
55996;DHT22;75961;51.012;4.634;2024-02-04T06:40:09;11.30;95.90
55996;DHT22;75961;51.012;4.634;2024-02-04T06:42:35;11.30;96.30
55996;DHT22;75961;51.012;4.634;2024-02-04T06:45:01;11.40;96.20
55996;DHT22;75961;51.012;4.634;2024-02-04T06:47:26;11.30;96.10
55996;DHT22;75961;51.012;4.634;2024-02-04T06:49:52;11.30;96.20
55996;DHT22;75961;51.012;4.634;2024-02-04T06:52:18;11.30;96.30
55996;DHT22;75961;51.012;4.634;2024-02-04T06:54:44;11.10;96.80
55996;DHT22;75961;51.012;4.634;2024-02-04T06:57:10;11.10;96.80
55996;DHT22;75961;51.012;4.634;2024-02-04T06:59:36;11.10;96.80
55996;DHT22;75961;51.012;4.634;2024-02-04T07:02:02;11.10;96.80
55996;DHT22;75961;51.012;4.634;2024-02-04T07:04:28;11.00;96.90
55996;DHT22;75961;51.012;4.634;2024-02-04T07:06:53;11.10;97.00
55996;DHT22;75961;51.012;4.634;2024-02-04T07:09:19;11.10;96.60
55996;DHT22;75961;51.012;4.634;2024-02-04T07:11:45;11.20;96.50
55996;DHT22;75961;51.012;4.634;2024-02-04T07:14:11;11.10;96.40
55996;DHT22;75961;51.012;4.634;2024-02-04T07:16:37;11.20;96.40
55996;DHT22;75961;51.012;4.634;2024-02-04T07:19:02;11.20;96.40
55996;DHT22;75961;51.012;4.634;2024-02-04T07:21:29;11.30;96.30
55996;DHT22;75961;51.012;4.634;2024-02-04T07:23:55;11.30;96.10
55996;DHT22;75961;51.012;4.634;2024-02-04T07:26:20;11.30;96.20
55996;DHT22;75961;51.012;4.634;2024-02-04T07:28:46;11.30;96.10
55996;DHT22;75961;51.012;4.634;2024-02-04T07:31:12;11.20;96.00
55996;DHT22;75961;51.012;4.634;2024-02-04T07:33:37;11.20;96.20
55996;DHT22;75961;51.012;4.634;2024-02-04T07:36:03;11.20;96.20
55996;DHT22;75961;51.012;4.634;2024-02-04T07:38:29;11.30;96.10
55996;DHT22;75961;51.012;4.634;2024-02-04T07:40:55;11.30;96.00
55996;DHT22;75961;51.012;4.634;2024-02-04T07:43:24;11.20;96.10
55996;DHT22;75961;51.012;4.634;2024-02-04T07:45:50;11.10;96.30
55996;DHT22;75961;51.012;4.634;2024-02-04T07:48:16;11.20;96.40
55996;DHT22;75961;51.012;4.634;2024-02-04T07:50:42;11.20;96.30
55996;DHT22;75961;51.012;4.634;2024-02-04T07:53:08;11.30;96.10
55996;DHT22;75961;51.012;4.634;2024-02-04T07:55:34;11.30;96.10
55996;DHT22;75961;51.012;4.634;2024-02-04T07:58:00;11.30;96.10
55996;DHT22;75961;51.012;4.634;2024-02-04T08:00:25;11.40;96.00
55996;DHT22;75961;51.012;4.634;2024-02-04T08:02:51;11.50;95.40
55996;DHT22;75961;51.012;4.634;2024-02-04T08:05:17;11.50;95.30
55996;DHT22;75961;51.012;4.634;2024-02-04T08:07:42;11.60;95.20
55996;DHT22;75961;51.012;4.634;2024-02-04T08:10:10;11.50;95.10
55996;DHT22;75961;51.012;4.634;2024-02-04T08:12:35;11.60;94.60
55996;DHT22;75961;51.012;4.634;2024-02-04T08:15:01;11.50;95.10
55996;DHT22;75961;51.012;4.634;2024-02-04T08:17:27;11.50;95.10
55996;DHT22;75961;51.012;4.634;2024-02-04T08:19:59;11.50;94.90
55996;DHT22;75961;51.012;4.634;2024-02-04T08:22:24;11.50;95.20
55996;DHT22;75961;51.012;4.634;2024-02-04T08:24:50;11.50;94.90
55996;DHT22;75961;51.012;4.634;2024-02-04T08:27:16;11.50;95.00
55996;DHT22;75961;51.012;4.634;2024-02-04T08:29:43;11.40;95.20
55996;DHT22;75961;51.012;4.634;2024-02-04T08:32:10;11.40;95.10
55996;DHT22;75961;51.012;4.634;2024-02-04T08:34:36;11.50;95.20
55996;DHT22;75961;51.012;4.634;2024-02-04T08:37:02;11.50;95.10
55996;DHT22;75961;51.012;4.634;2024-02-04T08:39:28;11.50;95.00
55996;DHT22;75961;51.012;4.634;2024-02-04T08:41:55;11.50;95.00
55996;DHT22;75961;51.012;4.634;2024-02-04T08:44:21;11.50;95.00
55996;DHT22;75961;51.012;4.634;2024-02-04T08:46:46;11.50;95.00
55996;DHT22;75961;51.012;4.634;2024-02-04T08:49:12;11.40;95.20
55996;DHT22;75961;51.012;4.634;2024-02-04T08:51:38;11.50;95.20
55996;DHT22;75961;51.012;4.634;2024-02-04T08:54:04;11.50;94.90
55996;DHT22;75961;51.012;4.634;2024-02-04T08:56:29;11.60;94.60
55996;DHT22;75961;51.012;4.634;2024-02-04T08:58:55;11.50;94.90
55996;DHT22;75961;51.012;4.634;2024-02-04T09:01:21;11.70;94.70
55996;DHT22;75961;51.012;4.634;2024-02-04T09:03:47;11.70;94.40
55996;DHT22;75961;51.012;4.634;2024-02-04T09:06:13;11.80;94.40
55996;DHT22;75961;51.012;4.634;2024-02-04T09:08:38;11.90;94.20
55996;DHT22;75961;51.012;4.634;2024-02-04T09:11:04;11.90;94.00
55996;DHT22;75961;51.012;4.634;2024-02-04T09:13:30;12.00;94.00
55996;DHT22;75961;51.012;4.634;2024-02-04T09:15:56;12.10;93.90
55996;DHT22;75961;51.012;4.634;2024-02-04T09:18:21;12.10;93.60
55996;DHT22;75961;51.012;4.634;2024-02-04T09:20:47;11.90;94.00
55996;DHT22;75961;51.012;4.634;2024-02-04T09:23:13;11.90;93.70
55996;DHT22;75961;51.012;4.634;2024-02-04T09:25:39;11.90;94.10
55996;DHT22;75961;51.012;4.634;2024-02-04T09:28:05;11.90;93.60
55996;DHT22;75961;51.012;4.634;2024-02-04T09:30:30;11.80;93.80
55996;DHT22;75961;51.012;4.634;2024-02-04T09:32:56;11.80;93.80
55996;DHT22;75961;51.012;4.634;2024-02-04T09:35:22;11.90;93.90
55996;DHT22;75961;51.012;4.634;2024-02-04T09:37:48;11.90;93.60
55996;DHT22;75961;51.012;4.634;2024-02-04T09:40:14;11.90;93.70
55996;DHT22;75961;51.012;4.634;2024-02-04T09:42:40;11.80;93.90
55996;DHT22;75961;51.012;4.634;2024-02-04T09:45:06;11.90;93.70
55996;DHT22;75961;51.012;4.634;2024-02-04T09:47:34;11.80;94.00
55996;DHT22;75961;51.012;4.634;2024-02-04T09:50:00;11.90;93.80
55996;DHT22;75961;51.012;4.634;2024-02-04T09:52:29;11.90;93.60
55996;DHT22;75961;51.012;4.634;2024-02-04T09:55:02;12.00;93.50
55996;DHT22;75961;51.012;4.634;2024-02-04T09:57:29;11.90;93.50
55996;DHT22;75961;51.012;4.634;2024-02-04T09:59:56;11.90;93.50
55996;DHT22;75961;51.012;4.634;2024-02-04T10:02:22;11.80;93.80
55996;DHT22;75961;51.012;4.634;2024-02-04T10:04:48;11.80;93.70
55996;DHT22;75961;51.012;4.634;2024-02-04T10:07:14;11.80;93.90
55996;DHT22;75961;51.012;4.634;2024-02-04T10:09:42;11.90;93.70
55996;DHT22;75961;51.012;4.634;2024-02-04T10:12:08;11.80;93.70
55996;DHT22;75961;51.012;4.634;2024-02-04T10:14:35;11.70;94.00
55996;DHT22;75961;51.012;4.634;2024-02-04T10:17:00;11.90;93.90
55996;DHT22;75961;51.012;4.634;2024-02-04T10:19:26;11.90;93.60
55996;DHT22;75961;51.012;4.634;2024-02-04T10:21:59;12.00;93.60
55996;DHT22;75961;51.012;4.634;2024-02-04T10:24:26;12.10;93.50
55996;DHT22;75961;51.012;4.634;2024-02-04T10:26:52;12.10;93.30
55996;DHT22;75961;51.012;4.634;2024-02-04T10:29:18;12.10;93.00
55996;DHT22;75961;51.012;4.634;2024-02-04T10:31:44;12.00;93.40
55996;DHT22;75961;51.012;4.634;2024-02-04T10:34:10;11.90;94.00
55996;DHT22;75961;51.012;4.634;2024-02-04T10:36:35;12.00;93.30
55996;DHT22;75961;51.012;4.634;2024-02-04T10:39:01;12.10;93.20
55996;DHT22;75961;51.012;4.634;2024-02-04T10:41:29;12.10;93.00
55996;DHT22;75961;51.012;4.634;2024-02-04T10:43:59;12.20;93.20
55996;DHT22;75961;51.012;4.634;2024-02-04T10:46:30;12.30;92.70
55996;DHT22;75961;51.012;4.634;2024-02-04T10:48:59;12.30;92.70
55996;DHT22;75961;51.012;4.634;2024-02-04T10:51:26;12.40;92.70
55996;DHT22;75961;51.012;4.634;2024-02-04T10:53:55;12.30;92.80
55996;DHT22;75961;51.012;4.634;2024-02-04T10:56:25;12.50;92.60
55996;DHT22;75961;51.012;4.634;2024-02-04T10:58:54;12.70;92.30
55996;DHT22;75961;51.012;4.634;2024-02-04T11:01:21;12.80;91.60
55996;DHT22;75961;51.012;4.634;2024-02-04T11:03:48;12.90;91.60
55996;DHT22;75961;51.012;4.634;2024-02-04T11:06:16;12.90;91.40
55996;DHT22;75961;51.012;4.634;2024-02-04T11:08:42;12.80;91.70
55996;DHT22;75961;51.012;4.634;2024-02-04T11:11:09;12.80;91.50
55996;DHT22;75961;51.012;4.634;2024-02-04T11:13:35;12.80;91.60
55996;DHT22;75961;51.012;4.634;2024-02-04T11:26:56;12.60;91.80
55996;DHT22;75961;51.012;4.634;2024-02-04T11:29:22;12.60;91.90
55996;DHT22;75961;51.012;4.634;2024-02-04T11:31:48;12.60;92.00
55996;DHT22;75961;51.012;4.634;2024-02-04T11:34:14;12.60;91.80
55996;DHT22;75961;51.012;4.634;2024-02-04T11:36:40;12.60;91.90
55996;DHT22;75961;51.012;4.634;2024-02-04T11:39:13;12.50;92.10
55996;DHT22;75961;51.012;4.634;2024-02-04T11:41:46;12.50;91.90
55996;DHT22;75961;51.012;4.634;2024-02-04T11:44:25;12.40;92.20
55996;DHT22;75961;51.012;4.634;2024-02-04T11:46:51;12.50;92.40
55996;DHT22;75961;51.012;4.634;2024-02-04T11:49:18;12.30;92.60
55996;DHT22;75961;51.012;4.634;2024-02-04T11:51:50;12.50;92.30
55996;DHT22;75961;51.012;4.634;2024-02-04T11:54:16;12.50;92.20
55996;DHT22;75961;51.012;4.634;2024-02-04T11:56:43;12.50;92.20
55996;DHT22;75961;51.012;4.634;2024-02-04T11:59:09;12.30;92.50
55996;DHT22;75961;51.012;4.634;2024-02-04T12:01:35;12.30;92.60
55996;DHT22;75961;51.012;4.634;2024-02-04T12:04:16;12.30;92.70
55996;DHT22;75961;51.012;4.634;2024-02-04T12:06:42;12.40;92.50
55996;DHT22;75961;51.012;4.634;2024-02-04T12:09:09;12.40;92.60
55996;DHT22;75961;51.012;4.634;2024-02-04T12:11:38;12.50;92.10
55996;DHT22;75961;51.012;4.634;2024-02-04T12:14:04;12.50;92.30
55996;DHT22;75961;51.012;4.634;2024-02-04T12:16:32;12.60;92.20
55996;DHT22;75961;51.012;4.634;2024-02-04T12:18:58;12.70;91.80
55996;DHT22;75961;51.012;4.634;2024-02-04T12:21:25;12.60;92.20
55996;DHT22;75961;51.012;4.634;2024-02-04T12:23:51;12.50;92.30
55996;DHT22;75961;51.012;4.634;2024-02-04T12:26:17;12.70;92.40
55996;DHT22;75961;51.012;4.634;2024-02-04T12:28:43;12.60;92.30
55996;DHT22;75961;51.012;4.634;2024-02-04T12:31:19;12.60;92.40
55996;DHT22;75961;51.012;4.634;2024-02-04T12:33:59;12.60;91.90
55996;DHT22;75961;51.012;4.634;2024-02-04T12:36:30;12.60;92.40
55996;DHT22;75961;51.012;4.634;2024-02-04T12:38:59;12.60;92.10
55996;DHT22;75961;51.012;4.634;2024-02-04T12:41:27;12.70;92.30
55996;DHT22;75961;51.012;4.634;2024-02-04T12:43:55;12.50;92.40
55996;DHT22;75961;51.012;4.634;2024-02-04T12:46:21;12.30;92.70
55996;DHT22;75961;51.012;4.634;2024-02-04T12:48:52;12.30;92.80
55996;DHT22;75961;51.012;4.634;2024-02-04T12:54:11;12.30;93.10
55996;DHT22;75961;51.012;4.634;2024-02-04T12:56:55;12.40;92.60
55996;DHT22;75961;51.012;4.634;2024-02-04T12:59:28;12.30;93.00
55996;DHT22;75961;51.012;4.634;2024-02-04T13:01:56;12.30;92.80
55996;DHT22;75961;51.012;4.634;2024-02-04T13:04:22;12.40;93.00
55996;DHT22;75961;51.012;4.634;2024-02-04T13:06:48;12.60;92.40
55996;DHT22;75961;51.012;4.634;2024-02-04T13:09:15;12.60;92.30
55996;DHT22;75961;51.012;4.634;2024-02-04T13:11:41;12.40;92.60
55996;DHT22;75961;51.012;4.634;2024-02-04T13:14:08;12.40;92.60
55996;DHT22;75961;51.012;4.634;2024-02-04T13:16:33;12.50;92.30
55996;DHT22;75961;51.012;4.634;2024-02-04T13:19:01;12.60;92.20
55996;DHT22;75961;51.012;4.634;2024-02-04T13:21:28;12.60;91.90
55996;DHT22;75961;51.012;4.634;2024-02-04T13:23:54;12.70;92.20
55996;DHT22;75961;51.012;4.634;2024-02-04T13:26:20;12.70;91.80
55996;DHT22;75961;51.012;4.634;2024-02-04T13:28:46;12.60;92.30
55996;DHT22;75961;51.012;4.634;2024-02-04T13:31:12;12.70;92.20
55996;DHT22;75961;51.012;4.634;2024-02-04T13:33:41;12.70;92.10
55996;DHT22;75961;51.012;4.634;2024-02-04T13:36:07;12.70;92.00
55996;DHT22;75961;51.012;4.634;2024-02-04T13:38:36;12.80;92.10
55996;DHT22;75961;51.012;4.634;2024-02-04T13:41:02;12.70;92.00
55996;DHT22;75961;51.012;4.634;2024-02-04T13:43:30;12.60;92.00
55996;DHT22;75961;51.012;4.634;2024-02-04T13:45:55;12.50;92.40
55996;DHT22;75961;51.012;4.634;2024-02-04T13:48:21;12.50;92.40
55996;DHT22;75961;51.012;4.634;2024-02-04T13:50:48;12.50;92.30
55996;DHT22;75961;51.012;4.634;2024-02-04T13:53:14;12.60;91.90
55996;DHT22;75961;51.012;4.634;2024-02-04T13:55:39;12.70;91.90
55996;DHT22;75961;51.012;4.634;2024-02-04T13:58:05;12.60;92.00
55996;DHT22;75961;51.012;4.634;2024-02-04T14:00:31;12.60;92.10
55996;DHT22;75961;51.012;4.634;2024-02-04T14:02:57;12.70;91.80
55996;DHT22;75961;51.012;4.634;2024-02-04T14:05:23;12.70;91.80
55996;DHT22;75961;51.012;4.634;2024-02-04T14:07:51;12.70;91.70
55996;DHT22;75961;51.012;4.634;2024-02-04T14:10:17;12.70;91.80
55996;DHT22;75961;51.012;4.634;2024-02-04T14:12:42;12.70;91.50
55996;DHT22;75961;51.012;4.634;2024-02-04T14:15:13;12.70;91.80
55996;DHT22;75961;51.012;4.634;2024-02-04T14:17:39;12.70;91.70
55996;DHT22;75961;51.012;4.634;2024-02-04T14:20:06;12.70;92.00
55996;DHT22;75961;51.012;4.634;2024-02-04T14:22:32;12.90;91.30
55996;DHT22;75961;51.012;4.634;2024-02-04T14:24:58;12.70;91.70
55996;DHT22;75961;51.012;4.634;2024-02-04T14:27:25;12.60;92.00
55996;DHT22;75961;51.012;4.634;2024-02-04T14:29:51;12.70;91.80
55996;DHT22;75961;51.012;4.634;2024-02-04T14:32:16;12.70;91.60
55996;DHT22;75961;51.012;4.634;2024-02-04T14:34:42;12.70;91.80
55996;DHT22;75961;51.012;4.634;2024-02-04T14:37:08;12.70;91.70
55996;DHT22;75961;51.012;4.634;2024-02-04T14:39:33;12.70;91.60
55996;DHT22;75961;51.012;4.634;2024-02-04T14:42:00;12.70;91.50
55996;DHT22;75961;51.012;4.634;2024-02-04T14:44:26;12.60;91.50
55996;DHT22;75961;51.012;4.634;2024-02-04T14:46:52;12.60;91.70
55996;DHT22;75961;51.012;4.634;2024-02-04T14:49:18;12.60;91.40
55996;DHT22;75961;51.012;4.634;2024-02-04T14:51:43;12.60;91.70
55996;DHT22;75961;51.012;4.634;2024-02-04T14:54:09;12.50;91.60
55996;DHT22;75961;51.012;4.634;2024-02-04T14:56:41;12.60;91.90
55996;DHT22;75961;51.012;4.634;2024-02-04T14:59:09;12.70;91.50
55996;DHT22;75961;51.012;4.634;2024-02-04T15:01:36;12.70;91.60
55996;DHT22;75961;51.012;4.634;2024-02-04T15:04:01;12.40;92.00
55996;DHT22;75961;51.012;4.634;2024-02-04T15:06:27;12.40;92.50
55996;DHT22;75961;51.012;4.634;2024-02-04T15:08:55;12.50;91.90
55996;DHT22;75961;51.012;4.634;2024-02-04T15:11:22;12.60;91.80
55996;DHT22;75961;51.012;4.634;2024-02-04T15:13:48;12.70;91.70
55996;DHT22;75961;51.012;4.634;2024-02-04T15:16:14;12.80;91.40
55996;DHT22;75961;51.012;4.634;2024-02-04T15:18:40;12.80;91.20
55996;DHT22;75961;51.012;4.634;2024-02-04T15:21:06;12.70;91.60
55996;DHT22;75961;51.012;4.634;2024-02-04T15:23:32;12.50;91.90
55996;DHT22;75961;51.012;4.634;2024-02-04T15:25:58;12.50;92.10
55996;DHT22;75961;51.012;4.634;2024-02-04T15:28:24;12.50;92.00
55996;DHT22;75961;51.012;4.634;2024-02-04T15:30:51;12.40;92.00
55996;DHT22;75961;51.012;4.634;2024-02-04T15:33:17;12.30;92.30
55996;DHT22;75961;51.012;4.634;2024-02-04T15:35:43;12.20;92.60
55996;DHT22;75961;51.012;4.634;2024-02-04T15:38:09;12.30;92.20
55996;DHT22;75961;51.012;4.634;2024-02-04T15:40:35;12.30;92.20
55996;DHT22;75961;51.012;4.634;2024-02-04T15:43:01;12.20;92.20
55996;DHT22;75961;51.012;4.634;2024-02-04T15:45:27;12.30;92.50